SBUR Informações do Aeroporto

Informações da Pista
Pista 17 Comprimento 5771 ft Largura 148 ft
Elevação 0 ft Limite 0 ft Heading 0
Pista 35 Comprimento 5771 ft Largura 148 ft
Elevação 0 ft Limite 0 ft Heading 0
Frequências do Aeroporto
Tipo APP Nome APP Frequência 120.8 MHZ
Tipo RDO Nome RDO Frequência 120.8 MHZ
Tipo TWR Nome TWR Frequência 118.5 MHZ
Navaids do Aeroporto
Tipo NDB Nome Uberaba Frequência 235 KHZ
Informações meteorológicas do aeroporto e NOTAM
ADDS - METARS form results

(1022 UTC 19 September 2019)
Data provider http://aviationweather.gov/metar/data/
 
Forecast for: SBUR (UBERABA , BR)
Text: TAF SBUR 190200Z 1906/1918 02010KT CAVOK TN23/1908Z TX35/1918Z
Forecast period: 0600 to 1500 UTC 19 September 2019
Forecast type: FROM: standard forecast or significant change
Winds: from the NNE (20 degrees) at 12 MPH (10 knots; 5.1 m/s)
Visibility: 6 or more miles 10+ km)
Ceiling: unknown
Clouds: missing
Weather: no significant weather forecast for this period
Text: BECMG 1915/1917 34015KT 8000 FEW040 RMK PGL
Forecast period: 1500 to 1800 UTC 19 September 2019
Forecast type: BECOMING: Conditions expected to become as follows by 1700 UTC 19 September 2019
Winds: from the NNW (340 degrees) at 17 MPH (15 knots; 7.7 m/s)
Visibility: 5 miles (8 km)
Ceiling: at least 12,000 feet AGL
Clouds: few clouds at 4000 feet AGL
Weather: no significant weather forecast for this period